Nenana, AK

12:15 PM AKST on December 02, 2016 (GMT -0900)
TMM Alaska | | Change Station
Active Advisory: Winter Weather Advisory

Elev 361 ft 64.56 °N, 149.10 °W | Updated 6 minutes ago

Light Snow
Light Snow
-2.6 °F
Feels Like -15 °F
N
6.0
Wind Variable Wind from West

Today
High -- | Low -- °F
--% Chance of Precip.
Yesterday
High -- | Low -- °F
Precip. -- in
Pressure 29.78 in
Visibility 1.0 miles
Clouds Overcast 2700 ft
Windchill -15 °F
Dew Point -10 °F
Humidity 72%
Rainfall 0.00 in
Snow Depth Not available.
10:25 AM 3:06 PM
Waxing Crescent, 10% visible
METAR PANN 022053Z AUTO 30006KT 1SM -SN OVC027 M18/M21 A2974 RMK AO2 SLP085 P0001 60004 T11831211 53014 TSNO
Pressure 29.78 in
Visibility 1.0 miles
Clouds Overcast 2700 ft
Windchill -15 °F
Dew Point -10 °F
Humidity 72%
Rainfall 0.00 in
Snow Depth Not available.
10:25 AM 3:06 PM
Waxing Crescent, 10% visible
METAR PANN 022053Z AUTO 30006KT 1SM -SN OVC027 M18/M21 A2974 RMK AO2 SLP085 P0001 60004 T11831211 53014 TSNO

10-Day Weather Forecast

Almanac

Astronomy

Dec. 02, 2016 Rise Set
Actual Time
Civil Twilight
Nautical Twilight
Astronomical Twilight
Moon
Length of Visible Light
Length of Day
Tomorrow will be .
, % of the Moon is Illuminated

Today's Extremes

State Highs State Lows

Community

WunderPhotos

Upload Photos

1,955,369 photos uploaded!

WunderBlog® & News

Nearby

Air Quality

  Air Quality AQ Index Pollutant
Not available.

Snow Depth

Station Depth Elevation

Earthquake Activity

City Distance Mag. Time & Date
Minimum magnitude displayed is 2.5.

Coastal Water Temperatures

Place Temperature

Stations

Nearby Weather Stations

Station Location Temp. Windchill Dew Point Humidity Wind Precip. Elev Updated Type
                   

Watches & Warnings

Winter Weather Advisory
Issued: 5:14 AM AKST Dec. 2, 2016 – National Weather Service

... Winter Weather Advisory now in effect until 11 am akst
Saturday...

* location... east of Manley Hot Springs.

* Snow... with additional accumulation of 3 to 4 inches.

* Timing... snowfall will be heaviest from this afternoon through
Saturday morning. Snow will taper off Saturday afternoon.

* Impacts... visibility may be greatly reduced. Travel and
outdoor activities will be difficult.

Precautionary/preparedness actions...

A Winter Weather Advisory means that one or more winter weather
hazards are expected to cause travel difficulties.